sensor_id;sensor_type;location;lat;lon;timestamp;P1;durP1;ratioP1;P2;durP2;ratioP2
41687;SDS011;27371;42.686;23.362;2022-12-11T00:01:42;21.45;;;12.43;;
41687;SDS011;27371;42.686;23.362;2022-12-11T00:04:08;19.20;;;12.07;;
41687;SDS011;27371;42.686;23.362;2022-12-11T00:06:33;21.50;;;11.80;;
41687;SDS011;27371;42.686;23.362;2022-12-11T00:08:59;19.55;;;10.40;;
41687;SDS011;27371;42.686;23.362;2022-12-11T00:11:25;18.45;;;10.57;;
41687;SDS011;27371;42.686;23.362;2022-12-11T00:13:51;17.10;;;10.15;;
41687;SDS011;27371;42.686;23.362;2022-12-11T00:16:16;20.48;;;10.90;;
41687;SDS011;27371;42.686;23.362;2022-12-11T00:18:42;19.30;;;11.50;;
41687;SDS011;27371;42.686;23.362;2022-12-11T00:21:09;19.52;;;12.27;;
41687;SDS011;27371;42.686;23.362;2022-12-11T00:23:37;21.73;;;11.23;;
41687;SDS011;27371;42.686;23.362;2022-12-11T00:26:07;16.20;;;9.80;;
41687;SDS011;27371;42.686;23.362;2022-12-11T00:28:34;20.30;;;10.43;;
41687;SDS011;27371;42.686;23.362;2022-12-11T00:31:03;15.77;;;10.65;;
41687;SDS011;27371;42.686;23.362;2022-12-11T00:33:33;18.35;;;11.48;;
41687;SDS011;27371;42.686;23.362;2022-12-11T00:35:59;19.65;;;11.07;;
41687;SDS011;27371;42.686;23.362;2022-12-11T00:38:24;17.50;;;11.48;;
41687;SDS011;27371;42.686;23.362;2022-12-11T00:40:50;17.65;;;12.95;;
41687;SDS011;27371;42.686;23.362;2022-12-11T00:43:15;19.23;;;11.60;;
41687;SDS011;27371;42.686;23.362;2022-12-11T00:45:41;17.98;;;10.07;;
41687;SDS011;27371;42.686;23.362;2022-12-11T00:48:09;15.48;;;10.77;;
41687;SDS011;27371;42.686;23.362;2022-12-11T00:50:35;21.63;;;11.77;;
41687;SDS011;27371;42.686;23.362;2022-12-11T00:53:02;18.67;;;10.73;;
41687;SDS011;27371;42.686;23.362;2022-12-11T00:55:29;18.02;;;10.95;;
41687;SDS011;27371;42.686;23.362;2022-12-11T00:57:55;19.50;;;11.50;;
41687;SDS011;27371;42.686;23.362;2022-12-11T01:05:24;11.88;;;6.72;;
41687;SDS011;27371;42.686;23.362;2022-12-11T01:07:50;16.23;;;9.95;;
41687;SDS011;27371;42.686;23.362;2022-12-11T01:10:15;17.52;;;9.57;;
41687;SDS011;27371;42.686;23.362;2022-12-11T01:12:56;16.23;;;10.07;;
41687;SDS011;27371;42.686;23.362;2022-12-11T01:15:26;18.05;;;9.65;;
41687;SDS011;27371;42.686;23.362;2022-12-11T01:17:53;17.42;;;9.68;;
41687;SDS011;27371;42.686;23.362;2022-12-11T01:20:20;17.17;;;9.68;;
41687;SDS011;27371;42.686;23.362;2022-12-11T01:22:47;16.27;;;9.55;;
41687;SDS011;27371;42.686;23.362;2022-12-11T01:25:17;17.33;;;10.23;;
41687;SDS011;27371;42.686;23.362;2022-12-11T01:27:43;16.65;;;10.05;;
41687;SDS011;27371;42.686;23.362;2022-12-11T01:30:13;20.33;;;10.57;;
41687;SDS011;27371;42.686;23.362;2022-12-11T01:32:38;17.00;;;9.95;;
41687;SDS011;27371;42.686;23.362;2022-12-11T01:35:04;15.05;;;9.70;;
41687;SDS011;27371;42.686;23.362;2022-12-11T01:37:31;14.85;;;10.50;;
41687;SDS011;27371;42.686;23.362;2022-12-11T01:39:58;14.05;;;7.70;;
41687;SDS011;27371;42.686;23.362;2022-12-11T01:42:24;14.82;;;7.63;;
41687;SDS011;27371;42.686;23.362;2022-12-11T01:47:15;18.15;;;9.48;;
41687;SDS011;27371;42.686;23.362;2022-12-11T01:49:41;18.00;;;10.27;;
41687;SDS011;27371;42.686;23.362;2022-12-11T01:52:15;14.50;;;8.93;;
41687;SDS011;27371;42.686;23.362;2022-12-11T01:54:45;15.45;;;9.07;;
41687;SDS011;27371;42.686;23.362;2022-12-11T01:57:12;13.43;;;7.80;;
41687;SDS011;27371;42.686;23.362;2022-12-11T01:59:40;12.73;;;6.95;;
41687;SDS011;27371;42.686;23.362;2022-12-11T02:04:37;7.15;;;3.85;;
41687;SDS011;27371;42.686;23.362;2022-12-11T02:07:04;10.90;;;6.75;;
41687;SDS011;27371;42.686;23.362;2022-12-11T02:09:31;11.40;;;5.35;;
41687;SDS011;27371;42.686;23.362;2022-12-11T02:12:00;12.90;;;5.68;;
41687;SDS011;27371;42.686;23.362;2022-12-11T02:25:21;6.50;;;2.22;;
41687;SDS011;27371;42.686;23.362;2022-12-11T02:30:30;5.28;;;1.83;;
41687;SDS011;27371;42.686;23.362;2022-12-11T02:32:58;4.53;;;1.90;;
41687;SDS011;27371;42.686;23.362;2022-12-11T02:35:33;3.17;;;1.25;;
41687;SDS011;27371;42.686;23.362;2022-12-11T02:38:06;2.40;;;1.23;;
41687;SDS011;27371;42.686;23.362;2022-12-11T02:40:37;1.70;;;1.23;;
41687;SDS011;27371;42.686;23.362;2022-12-11T02:43:06;2.33;;;1.20;;
41687;SDS011;27371;42.686;23.362;2022-12-11T02:45:34;2.35;;;0.80;;
41687;SDS011;27371;42.686;23.362;2022-12-11T02:48:03;1.63;;;0.70;;
41687;SDS011;27371;42.686;23.362;2022-12-11T02:50:30;1.85;;;0.75;;
41687;SDS011;27371;42.686;23.362;2022-12-11T02:53:00;1.45;;;0.50;;
41687;SDS011;27371;42.686;23.362;2022-12-11T02:55:28;2.55;;;0.70;;
41687;SDS011;27371;42.686;23.362;2022-12-11T02:57:57;2.03;;;0.93;;
41687;SDS011;27371;42.686;23.362;2022-12-11T03:00:30;5.40;;;1.35;;
41687;SDS011;27371;42.686;23.362;2022-12-11T03:02:56;2.22;;;1.13;;
41687;SDS011;27371;42.686;23.362;2022-12-11T03:05:22;2.88;;;0.98;;
41687;SDS011;27371;42.686;23.362;2022-12-11T03:07:47;2.13;;;0.93;;
41687;SDS011;27371;42.686;23.362;2022-12-11T03:10:15;1.13;;;0.70;;
41687;SDS011;27371;42.686;23.362;2022-12-11T03:12:44;3.97;;;0.75;;
41687;SDS011;27371;42.686;23.362;2022-12-11T03:15:13;0.65;;;0.40;;
41687;SDS011;27371;42.686;23.362;2022-12-11T03:25:55;1.00;;;0.20;;
41687;SDS011;27371;42.686;23.362;2022-12-11T03:28:29;1.30;;;0.20;;
41687;SDS011;27371;42.686;23.362;2022-12-11T03:31:02;2.03;;;0.30;;
41687;SDS011;27371;42.686;23.362;2022-12-11T03:33:34;0.60;;;0.60;;
41687;SDS011;27371;42.686;23.362;2022-12-11T03:36:06;0.50;;;0.20;;
41687;SDS011;27371;42.686;23.362;2022-12-11T03:38:40;0.73;;;0.45;;
41687;SDS011;27371;42.686;23.362;2022-12-11T03:41:14;3.78;;;0.73;;
41687;SDS011;27371;42.686;23.362;2022-12-11T03:43:42;1.73;;;0.30;;
41687;SDS011;27371;42.686;23.362;2022-12-11T03:46:09;2.55;;;0.50;;
41687;SDS011;27371;42.686;23.362;2022-12-11T03:48:37;1.08;;;0.30;;
41687;SDS011;27371;42.686;23.362;2022-12-11T03:51:06;1.27;;;0.30;;
41687;SDS011;27371;42.686;23.362;2022-12-11T03:53:33;1.30;;;0.30;;
41687;SDS011;27371;42.686;23.362;2022-12-11T03:56:00;1.95;;;0.20;;
41687;SDS011;27371;42.686;23.362;2022-12-11T03:58:28;0.10;;;0.10;;
41687;SDS011;27371;42.686;23.362;2022-12-11T04:00:54;1.05;;;0.35;;
41687;SDS011;27371;42.686;23.362;2022-12-11T04:03:19;0.25;;;0.10;;
41687;SDS011;27371;42.686;23.362;2022-12-11T04:05:46;0.63;;;0.17;;
41687;SDS011;27371;42.686;23.362;2022-12-11T04:08:15;0.85;;;0.25;;
41687;SDS011;27371;42.686;23.362;2022-12-11T04:10:41;1.08;;;0.43;;
41687;SDS011;27371;42.686;23.362;2022-12-11T04:13:08;1.13;;;0.32;;
41687;SDS011;27371;42.686;23.362;2022-12-11T04:15:35;1.55;;;0.68;;
41687;SDS011;27371;42.686;23.362;2022-12-11T04:18:01;2.20;;;0.82;;
41687;SDS011;27371;42.686;23.362;2022-12-11T04:20:45;1.80;;;0.47;;
41687;SDS011;27371;42.686;23.362;2022-12-11T04:23:29;3.00;;;0.73;;
41687;SDS011;27371;42.686;23.362;2022-12-11T04:26:14;1.45;;;0.50;;
41687;SDS011;27371;42.686;23.362;2022-12-11T04:28:42;2.47;;;0.43;;
41687;SDS011;27371;42.686;23.362;2022-12-11T04:31:12;1.92;;;0.60;;
41687;SDS011;27371;42.686;23.362;2022-12-11T04:33:38;2.58;;;0.63;;
41687;SDS011;27371;42.686;23.362;2022-12-11T04:36:04;1.60;;;0.60;;
41687;SDS011;27371;42.686;23.362;2022-12-11T04:38:30;2.33;;;0.50;;
41687;SDS011;27371;42.686;23.362;2022-12-11T04:40:57;3.67;;;0.55;;
41687;SDS011;27371;42.686;23.362;2022-12-11T04:43:25;1.67;;;0.47;;
41687;SDS011;27371;42.686;23.362;2022-12-11T04:45:59;2.08;;;0.32;;
41687;SDS011;27371;42.686;23.362;2022-12-11T04:48:29;0.43;;;0.20;;
41687;SDS011;27371;42.686;23.362;2022-12-11T04:50:54;0.80;;;0.20;;
41687;SDS011;27371;42.686;23.362;2022-12-11T04:53:20;2.50;;;0.30;;
41687;SDS011;27371;42.686;23.362;2022-12-11T04:55:45;0.88;;;0.30;;
41687;SDS011;27371;42.686;23.362;2022-12-11T04:58:11;1.60;;;0.30;;
41687;SDS011;27371;42.686;23.362;2022-12-11T05:00:36;1.02;;;0.30;;
41687;SDS011;27371;42.686;23.362;2022-12-11T05:03:03;5.50;;;0.38;;
41687;SDS011;27371;42.686;23.362;2022-12-11T05:05:29;2.15;;;0.30;;
41687;SDS011;27371;42.686;23.362;2022-12-11T05:07:55;1.00;;;0.20;;
41687;SDS011;27371;42.686;23.362;2022-12-11T05:10:20;1.52;;;0.30;;
41687;SDS011;27371;42.686;23.362;2022-12-11T05:12:46;1.13;;;0.20;;
41687;SDS011;27371;42.686;23.362;2022-12-11T05:15:11;2.20;;;0.40;;
41687;SDS011;27371;42.686;23.362;2022-12-11T05:17:37;7.13;;;0.40;;
41687;SDS011;27371;42.686;23.362;2022-12-11T05:20:02;1.23;;;0.30;;
41687;SDS011;27371;42.686;23.362;2022-12-11T05:22:29;4.38;;;0.40;;
41687;SDS011;27371;42.686;23.362;2022-12-11T05:24:54;1.35;;;0.30;;
41687;SDS011;27371;42.686;23.362;2022-12-11T05:27:20;1.40;;;0.20;;
41687;SDS011;27371;42.686;23.362;2022-12-11T05:29:45;2.30;;;0.93;;
41687;SDS011;27371;42.686;23.362;2022-12-11T05:32:11;0.98;;;0.40;;
41687;SDS011;27371;42.686;23.362;2022-12-11T05:34:37;1.40;;;0.40;;
41687;SDS011;27371;42.686;23.362;2022-12-11T05:37:02;1.58;;;0.40;;
41687;SDS011;27371;42.686;23.362;2022-12-11T05:39:27;2.42;;;0.30;;
41687;SDS011;27371;42.686;23.362;2022-12-11T05:41:53;2.38;;;0.30;;
41687;SDS011;27371;42.686;23.362;2022-12-11T05:44:19;2.05;;;0.40;;
41687;SDS011;27371;42.686;23.362;2022-12-11T05:46:44;2.47;;;0.43;;
41687;SDS011;27371;42.686;23.362;2022-12-11T05:49:10;1.42;;;0.25;;
41687;SDS011;27371;42.686;23.362;2022-12-11T05:51:35;4.28;;;0.50;;
41687;SDS011;27371;42.686;23.362;2022-12-11T05:54:03;2.90;;;0.63;;
41687;SDS011;27371;42.686;23.362;2022-12-11T05:56:31;1.58;;;0.30;;
41687;SDS011;27371;42.686;23.362;2022-12-11T05:58:58;2.70;;;0.60;;
41687;SDS011;27371;42.686;23.362;2022-12-11T06:01:26;2.00;;;0.43;;
41687;SDS011;27371;42.686;23.362;2022-12-11T06:03:53;0.60;;;0.30;;
41687;SDS011;27371;42.686;23.362;2022-12-11T06:06:21;1.30;;;0.43;;
41687;SDS011;27371;42.686;23.362;2022-12-11T06:08:50;2.08;;;0.50;;
41687;SDS011;27371;42.686;23.362;2022-12-11T06:11:20;1.17;;;0.32;;
41687;SDS011;27371;42.686;23.362;2022-12-11T06:13:47;2.00;;;0.32;;
41687;SDS011;27371;42.686;23.362;2022-12-11T06:16:13;1.63;;;0.30;;
41687;SDS011;27371;42.686;23.362;2022-12-11T06:18:42;2.13;;;0.38;;
41687;SDS011;27371;42.686;23.362;2022-12-11T06:21:10;2.40;;;0.40;;
41687;SDS011;27371;42.686;23.362;2022-12-11T06:23:44;1.42;;;0.43;;
41687;SDS011;27371;42.686;23.362;2022-12-11T06:26:10;1.17;;;0.40;;
41687;SDS011;27371;42.686;23.362;2022-12-11T06:28:37;2.55;;;0.50;;
41687;SDS011;27371;42.686;23.362;2022-12-11T06:31:03;1.90;;;0.40;;
41687;SDS011;27371;42.686;23.362;2022-12-11T06:33:29;2.17;;;0.47;;
41687;SDS011;27371;42.686;23.362;2022-12-11T06:35:55;2.45;;;0.35;;
41687;SDS011;27371;42.686;23.362;2022-12-11T06:38:21;4.10;;;1.08;;
41687;SDS011;27371;42.686;23.362;2022-12-11T06:40:54;0.77;;;0.45;;
41687;SDS011;27371;42.686;23.362;2022-12-11T06:43:23;0.75;;;0.50;;
41687;SDS011;27371;42.686;23.362;2022-12-11T06:45:49;2.88;;;0.57;;
41687;SDS011;27371;42.686;23.362;2022-12-11T06:48:14;1.98;;;0.60;;
41687;SDS011;27371;42.686;23.362;2022-12-11T06:50:40;0.32;;;0.10;;
41687;SDS011;27371;42.686;23.362;2022-12-11T06:53:06;0.70;;;0.30;;
41687;SDS011;27371;42.686;23.362;2022-12-11T06:55:34;1.05;;;0.40;;
41687;SDS011;27371;42.686;23.362;2022-12-11T06:58:03;0.68;;;0.40;;
41687;SDS011;27371;42.686;23.362;2022-12-11T07:00:29;1.00;;;0.40;;
41687;SDS011;27371;42.686;23.362;2022-12-11T07:02:55;2.67;;;0.40;;
41687;SDS011;27371;42.686;23.362;2022-12-11T07:05:21;2.28;;;0.63;;
41687;SDS011;27371;42.686;23.362;2022-12-11T07:07:47;1.60;;;0.40;;
41687;SDS011;27371;42.686;23.362;2022-12-11T07:10:13;1.27;;;0.38;;
41687;SDS011;27371;42.686;23.362;2022-12-11T07:12:39;2.05;;;0.60;;
41687;SDS011;27371;42.686;23.362;2022-12-11T07:15:04;2.20;;;0.60;;
41687;SDS011;27371;42.686;23.362;2022-12-11T07:17:30;2.58;;;0.60;;
41687;SDS011;27371;42.686;23.362;2022-12-11T07:19:56;1.25;;;0.55;;
41687;SDS011;27371;42.686;23.362;2022-12-11T07:22:22;3.42;;;0.50;;
41687;SDS011;27371;42.686;23.362;2022-12-11T07:24:47;0.82;;;0.40;;
41687;SDS011;27371;42.686;23.362;2022-12-11T07:27:12;1.42;;;0.55;;
41687;SDS011;27371;42.686;23.362;2022-12-11T07:29:38;0.85;;;0.20;;
41687;SDS011;27371;42.686;23.362;2022-12-11T07:32:04;2.55;;;0.47;;
41687;SDS011;27371;42.686;23.362;2022-12-11T07:34:30;1.58;;;0.40;;
41687;SDS011;27371;42.686;23.362;2022-12-11T07:36:55;1.48;;;0.60;;
41687;SDS011;27371;42.686;23.362;2022-12-11T07:39:21;1.25;;;0.35;;
41687;SDS011;27371;42.686;23.362;2022-12-11T07:41:46;0.88;;;0.30;;
41687;SDS011;27371;42.686;23.362;2022-12-11T07:44:12;1.88;;;0.50;;
41687;SDS011;27371;42.686;23.362;2022-12-11T07:46:38;1.00;;;0.20;;
41687;SDS011;27371;42.686;23.362;2022-12-11T07:49:04;1.33;;;0.40;;
41687;SDS011;27371;42.686;23.362;2022-12-11T07:51:31;2.47;;;0.40;;
41687;SDS011;27371;42.686;23.362;2022-12-11T07:54:02;1.40;;;0.60;;
41687;SDS011;27371;42.686;23.362;2022-12-11T07:56:40;3.10;;;0.73;;
41687;SDS011;27371;42.686;23.362;2022-12-11T07:59:09;2.40;;;0.60;;
41687;SDS011;27371;42.686;23.362;2022-12-11T08:01:36;1.33;;;0.50;;
41687;SDS011;27371;42.686;23.362;2022-12-11T08:04:03;3.17;;;0.70;;
41687;SDS011;27371;42.686;23.362;2022-12-11T08:06:31;1.88;;;0.60;;
41687;SDS011;27371;42.686;23.362;2022-12-11T08:08:59;3.53;;;0.80;;
41687;SDS011;27371;42.686;23.362;2022-12-11T08:11:26;7.18;;;0.90;;
41687;SDS011;27371;42.686;23.362;2022-12-11T08:13:52;2.47;;;0.65;;
41687;SDS011;27371;42.686;23.362;2022-12-11T08:16:18;5.07;;;1.05;;
41687;SDS011;27371;42.686;23.362;2022-12-11T08:18:44;2.88;;;0.70;;
41687;SDS011;27371;42.686;23.362;2022-12-11T08:21:15;2.60;;;0.70;;
41687;SDS011;27371;42.686;23.362;2022-12-11T08:23:42;1.30;;;0.40;;
41687;SDS011;27371;42.686;23.362;2022-12-11T08:26:10;3.38;;;0.80;;
41687;SDS011;27371;42.686;23.362;2022-12-11T08:28:37;2.58;;;0.80;;
41687;SDS011;27371;42.686;23.362;2022-12-11T08:31:04;1.98;;;0.50;;
41687;SDS011;27371;42.686;23.362;2022-12-11T08:33:35;2.65;;;0.52;;
41687;SDS011;27371;42.686;23.362;2022-12-11T08:36:02;2.40;;;0.85;;
41687;SDS011;27371;42.686;23.362;2022-12-11T08:38:29;2.50;;;0.80;;
41687;SDS011;27371;42.686;23.362;2022-12-11T08:40:55;1.27;;;0.52;;
41687;SDS011;27371;42.686;23.362;2022-12-11T08:43:21;1.35;;;0.60;;
41687;SDS011;27371;42.686;23.362;2022-12-11T08:45:46;2.08;;;0.70;;
41687;SDS011;27371;42.686;23.362;2022-12-11T08:48:12;1.30;;;0.30;;
41687;SDS011;27371;42.686;23.362;2022-12-11T08:50:37;1.90;;;0.70;;
41687;SDS011;27371;42.686;23.362;2022-12-11T08:53:03;2.15;;;0.60;;
41687;SDS011;27371;42.686;23.362;2022-12-11T08:55:28;3.13;;;1.40;;
41687;SDS011;27371;42.686;23.362;2022-12-11T08:57:54;0.70;;;0.55;;
41687;SDS011;27371;42.686;23.362;2022-12-11T09:00:19;2.00;;;0.60;;
41687;SDS011;27371;42.686;23.362;2022-12-11T09:02:46;4.00;;;0.60;;
41687;SDS011;27371;42.686;23.362;2022-12-11T09:05:12;2.40;;;0.57;;
41687;SDS011;27371;42.686;23.362;2022-12-11T09:07:37;1.42;;;0.50;;
41687;SDS011;27371;42.686;23.362;2022-12-11T09:10:04;2.00;;;0.60;;
41687;SDS011;27371;42.686;23.362;2022-12-11T09:12:31;2.15;;;1.20;;
41687;SDS011;27371;42.686;23.362;2022-12-11T09:14:58;5.55;;;2.33;;
41687;SDS011;27371;42.686;23.362;2022-12-11T09:17:24;3.58;;;1.00;;
41687;SDS011;27371;42.686;23.362;2022-12-11T09:19:50;3.30;;;1.70;;
41687;SDS011;27371;42.686;23.362;2022-12-11T09:22:15;3.70;;;1.67;;
41687;SDS011;27371;42.686;23.362;2022-12-11T09:24:41;2.47;;;1.10;;
41687;SDS011;27371;42.686;23.362;2022-12-11T09:27:06;1.13;;;0.52;;
41687;SDS011;27371;42.686;23.362;2022-12-11T09:29:32;2.70;;;0.88;;
41687;SDS011;27371;42.686;23.362;2022-12-11T09:31:58;2.15;;;0.90;;
41687;SDS011;27371;42.686;23.362;2022-12-11T09:34:23;2.53;;;1.15;;
41687;SDS011;27371;42.686;23.362;2022-12-11T09:36:49;2.58;;;1.10;;
41687;SDS011;27371;42.686;23.362;2022-12-11T09:39:14;2.75;;;0.77;;
41687;SDS011;27371;42.686;23.362;2022-12-11T09:44:52;4.05;;;1.13;;
41687;SDS011;27371;42.686;23.362;2022-12-11T09:47:02;3.15;;;1.00;;
41687;SDS011;27371;42.686;23.362;2022-12-11T09:50:04;2.67;;;1.15;;
41687;SDS011;27371;42.686;23.362;2022-12-11T09:55:14;2.88;;;1.23;;
41687;SDS011;27371;42.686;23.362;2022-12-11T10:17:26;3.10;;;1.45;;
41687;SDS011;27371;42.686;23.362;2022-12-11T10:20:05;4.47;;;1.70;;
41687;SDS011;27371;42.686;23.362;2022-12-11T10:22:42;4.15;;;1.35;;
41687;SDS011;27371;42.686;23.362;2022-12-11T10:25:13;2.00;;;1.10;;
41687;SDS011;27371;42.686;23.362;2022-12-11T10:27:43;5.47;;;3.50;;
41687;SDS011;27371;42.686;23.362;2022-12-11T10:33:24;4.10;;;1.38;;
41687;SDS011;27371;42.686;23.362;2022-12-11T10:35:58;3.72;;;1.10;;
41687;SDS011;27371;42.686;23.362;2022-12-11T10:38:31;4.63;;;1.70;;
41687;SDS011;27371;42.686;23.362;2022-12-11T10:40:58;2.13;;;1.48;;
41687;SDS011;27371;42.686;23.362;2022-12-11T10:43:37;1.77;;;1.17;;
41687;SDS011;27371;42.686;23.362;2022-12-11T10:46:06;3.78;;;1.65;;
41687;SDS011;27371;42.686;23.362;2022-12-11T10:48:47;3.78;;;1.00;;
41687;SDS011;27371;42.686;23.362;2022-12-11T10:51:13;1.73;;;0.70;;
41687;SDS011;27371;42.686;23.362;2022-12-11T10:53:39;2.15;;;0.70;;
41687;SDS011;27371;42.686;23.362;2022-12-11T10:56:07;3.75;;;1.55;;
41687;SDS011;27371;42.686;23.362;2022-12-11T10:58:33;2.03;;;1.00;;
41687;SDS011;27371;42.686;23.362;2022-12-11T11:01:23;2.03;;;0.70;;
41687;SDS011;27371;42.686;23.362;2022-12-11T11:03:57;1.45;;;0.70;;
41687;SDS011;27371;42.686;23.362;2022-12-11T11:06:30;1.83;;;0.52;;
41687;SDS011;27371;42.686;23.362;2022-12-11T11:08:57;0.55;;;0.20;;
41687;SDS011;27371;42.686;23.362;2022-12-11T11:11:26;4.03;;;1.85;;
41687;SDS011;27371;42.686;23.362;2022-12-11T11:16:30;2.03;;;0.82;;
41687;SDS011;27371;42.686;23.362;2022-12-11T11:18:56;9.65;;;6.90;;
41687;SDS011;27371;42.686;23.362;2022-12-11T11:21:23;2.85;;;1.00;;
41687;SDS011;27371;42.686;23.362;2022-12-11T11:23:50;2.00;;;0.80;;
41687;SDS011;27371;42.686;23.362;2022-12-11T11:26:18;10.55;;;7.30;;
41687;SDS011;27371;42.686;23.362;2022-12-11T11:29:04;5.65;;;2.45;;
41687;SDS011;27371;42.686;23.362;2022-12-11T11:31:33;5.28;;;3.88;;
41687;SDS011;27371;42.686;23.362;2022-12-11T11:34:06;4.70;;;1.98;;
41687;SDS011;27371;42.686;23.362;2022-12-11T11:43:57;5.97;;;2.72;;
41687;SDS011;27371;42.686;23.362;2022-12-11T11:46:25;5.80;;;3.03;;
41687;SDS011;27371;42.686;23.362;2022-12-11T11:49:03;6.50;;;3.83;;
41687;SDS011;27371;42.686;23.362;2022-12-11T11:51:38;8.82;;;4.03;;
41687;SDS011;27371;42.686;23.362;2022-12-11T11:57:48;7.80;;;3.15;;
41687;SDS011;27371;42.686;23.362;2022-12-11T12:00:13;6.00;;;2.60;;
41687;SDS011;27371;42.686;23.362;2022-12-11T12:02:48;5.55;;;2.05;;
41687;SDS011;27371;42.686;23.362;2022-12-11T12:05:21;3.55;;;2.10;;
41687;SDS011;27371;42.686;23.362;2022-12-11T12:08:13;8.88;;;4.53;;
41687;SDS011;27371;42.686;23.362;2022-12-11T12:14:05;7.60;;;3.72;;
41687;SDS011;27371;42.686;23.362;2022-12-11T12:21:36;8.27;;;5.10;;
41687;SDS011;27371;42.686;23.362;2022-12-11T12:26:37;10.15;;;2.40;;
41687;SDS011;27371;42.686;23.362;2022-12-11T12:29:45;2.90;;;1.42;;
41687;SDS011;27371;42.686;23.362;2022-12-11T12:32:35;2.85;;;1.35;;
41687;SDS011;27371;42.686;23.362;2022-12-11T12:35:30;2.75;;;1.50;;
41687;SDS011;27371;42.686;23.362;2022-12-11T12:40:33;2.22;;;1.30;;
41687;SDS011;27371;42.686;23.362;2022-12-11T12:48:40;2.50;;;1.33;;
41687;SDS011;27371;42.686;23.362;2022-12-11T12:51:05;2.78;;;1.40;;
41687;SDS011;27371;42.686;23.362;2022-12-11T12:53:32;2.75;;;1.40;;
41687;SDS011;27371;42.686;23.362;2022-12-11T12:56:00;3.72;;;2.00;;
41687;SDS011;27371;42.686;23.362;2022-12-11T12:58:29;3.70;;;1.63;;
41687;SDS011;27371;42.686;23.362;2022-12-11T13:01:09;2.85;;;1.48;;
41687;SDS011;27371;42.686;23.362;2022-12-11T13:03:51;3.35;;;1.40;;
41687;SDS011;27371;42.686;23.362;2022-12-11T13:06:28;2.75;;;1.40;;
41687;SDS011;27371;42.686;23.362;2022-12-11T13:09:12;3.80;;;1.63;;
41687;SDS011;27371;42.686;23.362;2022-12-11T13:11:38;3.05;;;1.70;;
41687;SDS011;27371;42.686;23.362;2022-12-11T13:14:06;2.05;;;1.23;;
41687;SDS011;27371;42.686;23.362;2022-12-11T13:17:03;2.47;;;1.30;;
41687;SDS011;27371;42.686;23.362;2022-12-11T13:19:32;2.00;;;1.00;;
41687;SDS011;27371;42.686;23.362;2022-12-11T13:24:31;1.88;;;1.02;;
41687;SDS011;27371;42.686;23.362;2022-12-11T13:27:10;3.33;;;1.00;;
41687;SDS011;27371;42.686;23.362;2022-12-11T13:29:48;2.25;;;0.90;;
41687;SDS011;27371;42.686;23.362;2022-12-11T13:34:43;2.47;;;1.20;;
41687;SDS011;27371;42.686;23.362;2022-12-11T13:37:26;1.52;;;0.75;;
41687;SDS011;27371;42.686;23.362;2022-12-11T13:39:57;2.20;;;0.90;;
41687;SDS011;27371;42.686;23.362;2022-12-11T13:42:26;1.67;;;0.82;;
41687;SDS011;27371;42.686;23.362;2022-12-11T13:44:56;3.58;;;0.93;;
41687;SDS011;27371;42.686;23.362;2022-12-11T13:47:22;1.73;;;0.80;;
41687;SDS011;27371;42.686;23.362;2022-12-11T13:50:10;2.17;;;0.80;;
41687;SDS011;27371;42.686;23.362;2022-12-11T13:52:40;2.08;;;0.75;;
41687;SDS011;27371;42.686;23.362;2022-12-11T13:55:22;2.03;;;1.02;;
41687;SDS011;27371;42.686;23.362;2022-12-11T13:57:52;1.85;;;1.00;;
41687;SDS011;27371;42.686;23.362;2022-12-11T14:00:19;2.10;;;0.88;;
41687;SDS011;27371;42.686;23.362;2022-12-11T14:02:47;2.25;;;1.10;;
41687;SDS011;27371;42.686;23.362;2022-12-11T14:05:14;2.55;;;0.70;;
41687;SDS011;27371;42.686;23.362;2022-12-11T14:07:41;1.60;;;0.80;;
41687;SDS011;27371;42.686;23.362;2022-12-11T14:10:15;1.88;;;0.90;;
41687;SDS011;27371;42.686;23.362;2022-12-11T14:13:00;3.22;;;0.80;;
41687;SDS011;27371;42.686;23.362;2022-12-11T14:15:30;3.28;;;1.65;;
41687;SDS011;27371;42.686;23.362;2022-12-11T14:17:57;2.25;;;1.05;;
41687;SDS011;27371;42.686;23.362;2022-12-11T14:20:27;4.00;;;1.42;;
41687;SDS011;27371;42.686;23.362;2022-12-11T14:25:40;3.75;;;1.77;;
41687;SDS011;27371;42.686;23.362;2022-12-11T14:28:12;2.25;;;1.23;;
41687;SDS011;27371;42.686;23.362;2022-12-11T14:30:45;4.72;;;1.08;;
41687;SDS011;27371;42.686;23.362;2022-12-11T14:33:13;2.58;;;0.82;;
41687;SDS011;27371;42.686;23.362;2022-12-11T14:35:40;2.30;;;1.20;;
41687;SDS011;27371;42.686;23.362;2022-12-11T14:38:18;4.05;;;2.10;;
41687;SDS011;27371;42.686;23.362;2022-12-11T14:40:54;4.63;;;1.70;;
41687;SDS011;27371;42.686;23.362;2022-12-11T14:43:35;2.00;;;1.20;;
41687;SDS011;27371;42.686;23.362;2022-12-11T14:46:09;3.33;;;1.10;;
41687;SDS011;27371;42.686;23.362;2022-12-11T14:48:43;2.83;;;1.27;;
41687;SDS011;27371;42.686;23.362;2022-12-11T14:51:13;3.70;;;1.15;;
41687;SDS011;27371;42.686;23.362;2022-12-11T14:53:43;2.75;;;1.50;;
41687;SDS011;27371;42.686;23.362;2022-12-11T14:56:16;4.03;;;1.55;;
41687;SDS011;27371;42.686;23.362;2022-12-11T14:59:01;1.50;;;0.98;;
41687;SDS011;27371;42.686;23.362;2022-12-11T15:01:31;1.80;;;1.05;;
41687;SDS011;27371;42.686;23.362;2022-12-11T15:04:06;2.50;;;0.95;;
41687;SDS011;27371;42.686;23.362;2022-12-11T15:06:47;2.42;;;1.10;;
41687;SDS011;27371;42.686;23.362;2022-12-11T15:09:23;2.75;;;1.00;;
41687;SDS011;27371;42.686;23.362;2022-12-11T15:11:58;2.88;;;1.50;;
41687;SDS011;27371;42.686;23.362;2022-12-11T15:14:32;3.10;;;1.40;;
41687;SDS011;27371;42.686;23.362;2022-12-11T15:16:58;2.70;;;1.27;;
41687;SDS011;27371;42.686;23.362;2022-12-11T15:21:53;2.80;;;1.42;;
41687;SDS011;27371;42.686;23.362;2022-12-11T15:24:23;3.47;;;1.42;;
41687;SDS011;27371;42.686;23.362;2022-12-11T15:26:58;2.80;;;1.30;;
41687;SDS011;27371;42.686;23.362;2022-12-11T15:29:35;5.50;;;2.08;;
41687;SDS011;27371;42.686;23.362;2022-12-11T15:34:53;4.75;;;1.90;;
41687;SDS011;27371;42.686;23.362;2022-12-11T15:39:46;3.75;;;1.73;;
41687;SDS011;27371;42.686;23.362;2022-12-11T15:42:17;4.47;;;2.45;;
41687;SDS011;27371;42.686;23.362;2022-12-11T15:45:04;5.30;;;2.25;;
41687;SDS011;27371;42.686;23.362;2022-12-11T15:47:31;2.40;;;1.90;;
41687;SDS011;27371;42.686;23.362;2022-12-11T15:50:01;2.72;;;1.52;;
41687;SDS011;27371;42.686;23.362;2022-12-11T15:54:58;3.25;;;1.67;;
41687;SDS011;27371;42.686;23.362;2022-12-11T15:57:24;3.40;;;1.40;;
41687;SDS011;27371;42.686;23.362;2022-12-11T15:59:50;2.70;;;1.50;;
41687;SDS011;27371;42.686;23.362;2022-12-11T16:02:18;2.05;;;1.13;;
41687;SDS011;27371;42.686;23.362;2022-12-11T16:04:43;2.17;;;1.10;;
41687;SDS011;27371;42.686;23.362;2022-12-11T16:07:14;4.00;;;1.48;;
41687;SDS011;27371;42.686;23.362;2022-12-11T16:09:41;3.92;;;1.17;;
41687;SDS011;27371;42.686;23.362;2022-12-11T16:12:07;3.60;;;1.50;;
41687;SDS011;27371;42.686;23.362;2022-12-11T16:14:32;4.07;;;1.60;;
41687;SDS011;27371;42.686;23.362;2022-12-11T16:17:02;2.67;;;1.58;;
41687;SDS011;27371;42.686;23.362;2022-12-11T16:19:28;2.53;;;1.50;;
41687;SDS011;27371;42.686;23.362;2022-12-11T16:21:54;3.25;;;1.60;;
41687;SDS011;27371;42.686;23.362;2022-12-11T16:24:19;4.20;;;1.70;;
41687;SDS011;27371;42.686;23.362;2022-12-11T16:26:45;3.60;;;1.73;;
41687;SDS011;27371;42.686;23.362;2022-12-11T16:29:10;4.40;;;1.60;;
41687;SDS011;27371;42.686;23.362;2022-12-11T16:31:36;4.20;;;2.13;;
41687;SDS011;27371;42.686;23.362;2022-12-11T16:34:01;2.97;;;1.95;;